sensor_id;sensor_type;location;lat;lon;timestamp;temperature;humidity
9083;DHT22;4577;48.704;9.000;2022-12-18T00:00:58;-7.90;55.70
9083;DHT22;4577;48.704;9.000;2022-12-18T00:05:51;-7.30;58.20
9083;DHT22;4577;48.704;9.000;2022-12-18T00:08:18;-7.80;55.80
9083;DHT22;4577;48.704;9.000;2022-12-18T00:10:44;-7.90;56.30
9083;DHT22;4577;48.704;9.000;2022-12-18T00:13:11;-8.00;55.90
9083;DHT22;4577;48.704;9.000;2022-12-18T00:15:38;-7.90;56.10
9083;DHT22;4577;48.704;9.000;2022-12-18T00:18:05;-8.10;58.20
9083;DHT22;4577;48.704;9.000;2022-12-18T00:20:35;-7.90;56.80
9083;DHT22;4577;48.704;9.000;2022-12-18T00:25:27;-8.20;56.70
9083;DHT22;4577;48.704;9.000;2022-12-18T00:32:45;-7.90;56.80
9083;DHT22;4577;48.704;9.000;2022-12-18T00:40:08;-8.00;58.40
9083;DHT22;4577;48.704;9.000;2022-12-18T00:53:22;-8.10;56.60
9083;DHT22;4577;48.704;9.000;2022-12-18T00:58:17;-8.00;56.90
9083;DHT22;4577;48.704;9.000;2022-12-18T01:05:39;-8.10;56.10
9083;DHT22;4577;48.704;9.000;2022-12-18T01:10:32;-8.20;54.80
9083;DHT22;4577;48.704;9.000;2022-12-18T01:12:58;-8.10;56.60
9083;DHT22;4577;48.704;9.000;2022-12-18T01:15:24;-8.20;56.70
9083;DHT22;4577;48.704;9.000;2022-12-18T01:17:52;-8.10;54.70
9083;DHT22;4577;48.704;9.000;2022-12-18T01:20:19;-8.10;56.80
9083;DHT22;4577;48.704;9.000;2022-12-18T01:25:11;-8.20;56.40
9083;DHT22;4577;48.704;9.000;2022-12-18T01:30:03;-8.20;57.80
9083;DHT22;4577;48.704;9.000;2022-12-18T01:32:30;-8.10;56.40
9083;DHT22;4577;48.704;9.000;2022-12-18T01:34:57;-8.00;57.10
9083;DHT22;4577;48.704;9.000;2022-12-18T01:42:16;-8.00;57.00
9083;DHT22;4577;48.704;9.000;2022-12-18T01:47:44;-8.00;58.60
9083;DHT22;4577;48.704;9.000;2022-12-18T01:53:17;-8.00;56.00
9083;DHT22;4577;48.704;9.000;2022-12-18T01:55:51;-8.00;55.80
9083;DHT22;4577;48.704;9.000;2022-12-18T01:58:19;-8.00;56.40
9083;DHT22;4577;48.704;9.000;2022-12-18T02:00:46;-7.70;58.00
9083;DHT22;4577;48.704;9.000;2022-12-18T02:08:24;-8.00;57.90
9083;DHT22;4577;48.704;9.000;2022-12-18T02:11:08;-8.00;56.50
9083;DHT22;4577;48.704;9.000;2022-12-18T02:13:44;-8.20;57.20
9083;DHT22;4577;48.704;9.000;2022-12-18T02:16:25;-8.00;57.00
9083;DHT22;4577;48.704;9.000;2022-12-18T02:18:58;-8.20;56.20
9083;DHT22;4577;48.704;9.000;2022-12-18T02:24:24;-7.10;58.30
9083;DHT22;4577;48.704;9.000;2022-12-18T02:26:58;-8.10;55.60
9083;DHT22;4577;48.704;9.000;2022-12-18T02:29:35;-8.20;55.90
9083;DHT22;4577;48.704;9.000;2022-12-18T02:32:06;-8.10;56.60
9083;DHT22;4577;48.704;9.000;2022-12-18T02:34:38;-8.20;56.70
9083;DHT22;4577;48.704;9.000;2022-12-18T02:37:07;-8.10;55.50
9083;DHT22;4577;48.704;9.000;2022-12-18T02:39:36;-8.10;56.30
9083;DHT22;4577;48.704;9.000;2022-12-18T02:42:03;-7.90;57.30
9083;DHT22;4577;48.704;9.000;2022-12-18T02:44:34;-8.00;55.80
9083;DHT22;4577;48.704;9.000;2022-12-18T02:49:39;-8.10;55.60
9083;DHT22;4577;48.704;9.000;2022-12-18T02:55:08;-7.70;57.50
9083;DHT22;4577;48.704;9.000;2022-12-18T02:57:58;-7.90;57.80
9083;DHT22;4577;48.704;9.000;2022-12-18T03:05:52;-7.70;58.50
9083;DHT22;4577;48.704;9.000;2022-12-18T03:08:27;-7.60;58.00
9083;DHT22;4577;48.704;9.000;2022-12-18T03:11:30;-8.90;57.10
9083;DHT22;4577;48.704;9.000;2022-12-18T03:14:09;-7.60;58.40
9083;DHT22;4577;48.704;9.000;2022-12-18T03:16:37;-7.40;61.00
9083;DHT22;4577;48.704;9.000;2022-12-18T03:19:23;-7.40;63.80
9083;DHT22;4577;48.704;9.000;2022-12-18T03:21:54;-7.00;63.70
9083;DHT22;4577;48.704;9.000;2022-12-18T03:24:22;-7.50;61.80
9083;DHT22;4577;48.704;9.000;2022-12-18T03:26:52;-7.40;60.30
9083;DHT22;4577;48.704;9.000;2022-12-18T03:31:53;-7.30;59.10
9083;DHT22;4577;48.704;9.000;2022-12-18T03:34:24;-7.40;58.30
9083;DHT22;4577;48.704;9.000;2022-12-18T03:36:52;-7.50;58.70
9083;DHT22;4577;48.704;9.000;2022-12-18T03:39:19;-7.40;58.80
9083;DHT22;4577;48.704;9.000;2022-12-18T03:44:29;-4.70;62.20
9083;DHT22;4577;48.704;9.000;2022-12-18T03:47:19;-7.40;61.20
9083;DHT22;4577;48.704;9.000;2022-12-18T03:50:11;-7.40;61.30
9083;DHT22;4577;48.704;9.000;2022-12-18T03:52:54;-7.40;64.60
9083;DHT22;4577;48.704;9.000;2022-12-18T03:55:24;-7.30;66.80
9083;DHT22;4577;48.704;9.000;2022-12-18T03:57:52;-7.20;64.60
9083;DHT22;4577;48.704;9.000;2022-12-18T04:02:51;-7.10;65.70
9083;DHT22;4577;48.704;9.000;2022-12-18T04:05:19;-7.30;63.40
9083;DHT22;4577;48.704;9.000;2022-12-18T04:07:47;-7.30;63.40
9083;DHT22;4577;48.704;9.000;2022-12-18T04:10:15;-7.40;62.20
9083;DHT22;4577;48.704;9.000;2022-12-18T04:15:09;-7.80;62.30
9083;DHT22;4577;48.704;9.000;2022-12-18T04:20:02;-5.70;65.40
9083;DHT22;4577;48.704;9.000;2022-12-18T04:22:27;-7.30;66.00
9083;DHT22;4577;48.704;9.000;2022-12-18T04:24:53;-6.80;65.50
9083;DHT22;4577;48.704;9.000;2022-12-18T04:27:19;-7.20;66.00
9083;DHT22;4577;48.704;9.000;2022-12-18T04:32:10;-7.20;66.00
9083;DHT22;4577;48.704;9.000;2022-12-18T05:03:51;-7.00;70.40
9083;DHT22;4577;48.704;9.000;2022-12-18T05:11:12;-7.10;71.00
9083;DHT22;4577;48.704;9.000;2022-12-18T05:16:07;-8.80;69.10
9083;DHT22;4577;48.704;9.000;2022-12-18T05:18:34;-7.10;72.20
9083;DHT22;4577;48.704;9.000;2022-12-18T05:21:00;-6.50;73.30
9083;DHT22;4577;48.704;9.000;2022-12-18T05:23:26;-7.00;71.00
9083;DHT22;4577;48.704;9.000;2022-12-18T05:25:57;-6.80;72.90
9083;DHT22;4577;48.704;9.000;2022-12-18T05:28:25;-6.80;72.60
9083;DHT22;4577;48.704;9.000;2022-12-18T05:30:53;-6.90;70.40
9083;DHT22;4577;48.704;9.000;2022-12-18T05:33:20;-6.80;70.60
9083;DHT22;4577;48.704;9.000;2022-12-18T05:35:50;-6.60;70.60
9083;DHT22;4577;48.704;9.000;2022-12-18T05:45:37;-7.00;69.90
9083;DHT22;4577;48.704;9.000;2022-12-18T05:48:04;-7.00;70.00
9083;DHT22;4577;48.704;9.000;2022-12-18T05:50:30;-7.10;67.40
9083;DHT22;4577;48.704;9.000;2022-12-18T06:00:14;-7.40;66.20
9083;DHT22;4577;48.704;9.000;2022-12-18T06:05:07;-7.60;64.60
9083;DHT22;4577;48.704;9.000;2022-12-18T06:14:51;-7.70;64.80
9083;DHT22;4577;48.704;9.000;2022-12-18T06:17:17;-7.60;64.70
9083;DHT22;4577;48.704;9.000;2022-12-18T06:48:57;-7.90;63.30
9083;DHT22;4577;48.704;9.000;2022-12-18T06:51:24;-7.90;61.50
9083;DHT22;4577;48.704;9.000;2022-12-18T07:01:11;-7.80;61.60
9083;DHT22;4577;48.704;9.000;2022-12-18T07:03:38;-7.80;61.40
9083;DHT22;4577;48.704;9.000;2022-12-18T07:08:30;-7.80;61.00
9083;DHT22;4577;48.704;9.000;2022-12-18T07:10:57;-7.80;62.80
9083;DHT22;4577;48.704;9.000;2022-12-18T07:15:49;-7.90;61.60
9083;DHT22;4577;48.704;9.000;2022-12-18T07:18:15;-7.90;61.90
9083;DHT22;4577;48.704;9.000;2022-12-18T07:20:40;-7.10;61.90
9083;DHT22;4577;48.704;9.000;2022-12-18T07:25:36;-7.60;61.30
9083;DHT22;4577;48.704;9.000;2022-12-18T07:28:03;-7.60;61.50
9083;DHT22;4577;48.704;9.000;2022-12-18T07:30:29;-7.50;63.20
9083;DHT22;4577;48.704;9.000;2022-12-18T07:35:21;-7.40;61.20
9083;DHT22;4577;48.704;9.000;2022-12-18T07:37:46;-7.50;61.00
9083;DHT22;4577;48.704;9.000;2022-12-18T07:40:12;-7.20;61.90
9083;DHT22;4577;48.704;9.000;2022-12-18T07:47:36;-7.60;61.90
9083;DHT22;4577;48.704;9.000;2022-12-18T07:50:03;-7.50;62.00
9083;DHT22;4577;48.704;9.000;2022-12-18T07:54:55;-7.50;62.00
9083;DHT22;4577;48.704;9.000;2022-12-18T07:59:47;-7.50;62.20
9083;DHT22;4577;48.704;9.000;2022-12-18T08:02:12;-7.70;61.20
9083;DHT22;4577;48.704;9.000;2022-12-18T08:09:30;-7.30;64.10
9083;DHT22;4577;48.704;9.000;2022-12-18T08:14:22;-7.10;65.00
9083;DHT22;4577;48.704;9.000;2022-12-18T08:16:48;-7.00;64.30
9083;DHT22;4577;48.704;9.000;2022-12-18T08:19:13;-6.20;64.20
9083;DHT22;4577;48.704;9.000;2022-12-18T08:21:42;-7.00;63.20
9083;DHT22;4577;48.704;9.000;2022-12-18T08:24:09;-7.60;64.40
9083;DHT22;4577;48.704;9.000;2022-12-18T08:31:29;-6.70;63.20
9083;DHT22;4577;48.704;9.000;2022-12-18T08:33:55;-6.50;64.00
9083;DHT22;4577;48.704;9.000;2022-12-18T08:36:22;-6.60;63.50
9083;DHT22;4577;48.704;9.000;2022-12-18T08:41:15;-6.50;65.70
9083;DHT22;4577;48.704;9.000;2022-12-18T08:43:41;-6.30;64.40
9083;DHT22;4577;48.704;9.000;2022-12-18T08:46:26;-6.40;64.40
9083;DHT22;4577;48.704;9.000;2022-12-18T08:48:54;-6.30;65.10
9083;DHT22;4577;48.704;9.000;2022-12-18T08:53:47;-6.20;67.00
9083;DHT22;4577;48.704;9.000;2022-12-18T08:56:13;-6.10;65.90
9083;DHT22;4577;48.704;9.000;2022-12-18T08:58:40;-5.90;66.60
9083;DHT22;4577;48.704;9.000;2022-12-18T09:01:08;-5.80;68.00
9083;DHT22;4577;48.704;9.000;2022-12-18T09:03:37;-5.70;66.90
9083;DHT22;4577;48.704;9.000;2022-12-18T09:06:03;-6.10;67.50
9083;DHT22;4577;48.704;9.000;2022-12-18T09:08:29;-5.60;68.30
9083;DHT22;4577;48.704;9.000;2022-12-18T09:10:55;-5.50;69.30
9083;DHT22;4577;48.704;9.000;2022-12-18T09:13:21;-5.40;67.90
9083;DHT22;4577;48.704;9.000;2022-12-18T09:15:50;-5.30;68.30
9083;DHT22;4577;48.704;9.000;2022-12-18T09:18:18;-5.30;68.70
9083;DHT22;4577;48.704;9.000;2022-12-18T09:20:45;-5.20;68.90
9083;DHT22;4577;48.704;9.000;2022-12-18T09:23:11;-5.00;69.40
9083;DHT22;4577;48.704;9.000;2022-12-18T09:28:09;-4.90;69.40
9083;DHT22;4577;48.704;9.000;2022-12-18T09:30:38;-4.90;70.50
9083;DHT22;4577;48.704;9.000;2022-12-18T09:33:03;-4.80;69.50
9083;DHT22;4577;48.704;9.000;2022-12-18T09:35:29;-4.70;70.10
9083;DHT22;4577;48.704;9.000;2022-12-18T09:37:55;-4.90;69.30
9083;DHT22;4577;48.704;9.000;2022-12-18T09:40:23;-4.70;70.90
9083;DHT22;4577;48.704;9.000;2022-12-18T09:43:00;-4.50;69.60
9083;DHT22;4577;48.704;9.000;2022-12-18T09:45:27;-4.40;69.50
9083;DHT22;4577;48.704;9.000;2022-12-18T09:47:55;-4.40;69.80
9083;DHT22;4577;48.704;9.000;2022-12-18T09:50:33;-4.30;69.50
9083;DHT22;4577;48.704;9.000;2022-12-18T09:53:06;-4.20;69.80
9083;DHT22;4577;48.704;9.000;2022-12-18T09:55:38;-4.00;70.30
9083;DHT22;4577;48.704;9.000;2022-12-18T10:00:42;-4.00;69.50
9083;DHT22;4577;48.704;9.000;2022-12-18T10:03:13;-3.40;70.80
9083;DHT22;4577;48.704;9.000;2022-12-18T10:06:05;-4.00;71.00
9083;DHT22;4577;48.704;9.000;2022-12-18T10:08:46;-3.90;69.60
9083;DHT22;4577;48.704;9.000;2022-12-18T10:25:23;-3.40;69.80
9083;DHT22;4577;48.704;9.000;2022-12-18T10:27:58;-3.40;68.80
9083;DHT22;4577;48.704;9.000;2022-12-18T10:30:25;-2.90;70.00
9083;DHT22;4577;48.704;9.000;2022-12-18T10:48:40;-3.00;68.70
9083;DHT22;4577;48.704;9.000;2022-12-18T10:51:07;-2.90;68.50
9083;DHT22;4577;48.704;9.000;2022-12-18T10:53:36;-2.80;68.80
9083;DHT22;4577;48.704;9.000;2022-12-18T10:56:04;-2.70;69.00
9083;DHT22;4577;48.704;9.000;2022-12-18T10:58:35;-2.70;68.00
9083;DHT22;4577;48.704;9.000;2022-12-18T11:01:11;-2.50;68.70
9083;DHT22;4577;48.704;9.000;2022-12-18T11:06:22;-2.60;68.20
9083;DHT22;4577;48.704;9.000;2022-12-18T11:09:20;-2.60;68.20
9083;DHT22;4577;48.704;9.000;2022-12-18T11:11:56;-2.40;68.10
9083;DHT22;4577;48.704;9.000;2022-12-18T11:16:49;-1.90;68.50
9083;DHT22;4577;48.704;9.000;2022-12-18T11:19:22;-2.30;67.90
9083;DHT22;4577;48.704;9.000;2022-12-18T11:21:50;-2.30;67.90
9083;DHT22;4577;48.704;9.000;2022-12-18T11:24:27;-2.30;68.10
9083;DHT22;4577;48.704;9.000;2022-12-18T11:27:02;-2.30;68.30
9083;DHT22;4577;48.704;9.000;2022-12-18T11:29:36;-2.30;68.40
9083;DHT22;4577;48.704;9.000;2022-12-18T11:34:52;-2.10;68.90
9083;DHT22;4577;48.704;9.000;2022-12-18T11:40:05;-2.10;68.50
9083;DHT22;4577;48.704;9.000;2022-12-18T11:47:57;-2.00;68.30
9083;DHT22;4577;48.704;9.000;2022-12-18T12:03:35;-1.70;67.90
9083;DHT22;4577;48.704;9.000;2022-12-18T12:11:54;-1.60;67.50
9083;DHT22;4577;48.704;9.000;2022-12-18T12:17:09;-1.40;68.00
9083;DHT22;4577;48.704;9.000;2022-12-18T12:19:51;-1.20;68.60
9083;DHT22;4577;48.704;9.000;2022-12-18T12:25:20;-1.50;68.40
9083;DHT22;4577;48.704;9.000;2022-12-18T12:30:27;-1.40;67.90
9083;DHT22;4577;48.704;9.000;2022-12-18T12:38:09;-1.20;68.30
9083;DHT22;4577;48.704;9.000;2022-12-18T12:40:56;-1.20;67.80
9083;DHT22;4577;48.704;9.000;2022-12-18T12:43:43;-1.20;67.20
9083;DHT22;4577;48.704;9.000;2022-12-18T12:46:12;-1.20;67.20
9083;DHT22;4577;48.704;9.000;2022-12-18T12:48:54;-1.20;66.90
9083;DHT22;4577;48.704;9.000;2022-12-18T12:51:35;-1.20;67.10
9083;DHT22;4577;48.704;9.000;2022-12-18T12:54:05;-1.20;67.40
9083;DHT22;4577;48.704;9.000;2022-12-18T13:00:04;-1.10;66.60
9083;DHT22;4577;48.704;9.000;2022-12-18T13:02:43;-5.20;62.50
9083;DHT22;4577;48.704;9.000;2022-12-18T13:05:30;-1.10;66.90
9083;DHT22;4577;48.704;9.000;2022-12-18T13:08:04;-1.10;67.40
9083;DHT22;4577;48.704;9.000;2022-12-18T13:33:44;-1.00;66.70
9083;DHT22;4577;48.704;9.000;2022-12-18T13:36:27;-0.80;66.30
9083;DHT22;4577;48.704;9.000;2022-12-18T13:46:55;-0.90;66.80
9083;DHT22;4577;48.704;9.000;2022-12-18T13:49:41;-0.90;66.40
9083;DHT22;4577;48.704;9.000;2022-12-18T13:52:21;-0.80;67.00
9083;DHT22;4577;48.704;9.000;2022-12-18T13:54:57;1.30;68.80
9083;DHT22;4577;48.704;9.000;2022-12-18T13:57:33;-0.90;67.20
9083;DHT22;4577;48.704;9.000;2022-12-18T14:02:45;-0.90;67.60
9083;DHT22;4577;48.704;9.000;2022-12-18T14:05:40;-0.90;68.10
9083;DHT22;4577;48.704;9.000;2022-12-18T14:08:12;-0.90;67.70
9083;DHT22;4577;48.704;9.000;2022-12-18T14:10:52;-0.80;68.00
9083;DHT22;4577;48.704;9.000;2022-12-18T14:13:30;-0.90;67.80
9083;DHT22;4577;48.704;9.000;2022-12-18T14:15:56;-0.90;68.50
9083;DHT22;4577;48.704;9.000;2022-12-18T14:21:23;-0.90;69.10
9083;DHT22;4577;48.704;9.000;2022-12-18T14:24:04;-0.90;69.30
9083;DHT22;4577;48.704;9.000;2022-12-18T14:26:30;-0.90;69.80
9083;DHT22;4577;48.704;9.000;2022-12-18T14:31:28;-1.00;70.30
9083;DHT22;4577;48.704;9.000;2022-12-18T14:36:27;-1.20;70.00
9083;DHT22;4577;48.704;9.000;2022-12-18T14:38:57;-1.20;70.30
9083;DHT22;4577;48.704;9.000;2022-12-18T14:41:25;-1.40;70.70
9083;DHT22;4577;48.704;9.000;2022-12-18T14:43:53;-1.30;70.30
9083;DHT22;4577;48.704;9.000;2022-12-18T14:46:36;-1.40;70.10
9083;DHT22;4577;48.704;9.000;2022-12-18T14:49:22;-1.40;70.20
9083;DHT22;4577;48.704;9.000;2022-12-18T14:51:54;-1.40;70.70
9083;DHT22;4577;48.704;9.000;2022-12-18T14:56:51;-1.40;71.00
9083;DHT22;4577;48.704;9.000;2022-12-18T14:59:20;-1.30;71.40
9083;DHT22;4577;48.704;9.000;2022-12-18T15:02:18;-1.30;71.20
9083;DHT22;4577;48.704;9.000;2022-12-18T15:04:45;-1.60;71.50
9083;DHT22;4577;48.704;9.000;2022-12-18T15:09:39;-1.50;71.30
9083;DHT22;4577;48.704;9.000;2022-12-18T15:14:40;-1.60;71.70
9083;DHT22;4577;48.704;9.000;2022-12-18T15:19:43;-1.60;72.10
9083;DHT22;4577;48.704;9.000;2022-12-18T15:22:26;-1.60;72.30
9083;DHT22;4577;48.704;9.000;2022-12-18T15:27:27;-1.80;72.30
9083;DHT22;4577;48.704;9.000;2022-12-18T15:30:02;-1.70;72.50
9083;DHT22;4577;48.704;9.000;2022-12-18T15:35:15;-1.70;71.80
9083;DHT22;4577;48.704;9.000;2022-12-18T15:37:41;-1.80;71.60
9083;DHT22;4577;48.704;9.000;2022-12-18T15:40:15;-1.70;71.20
9083;DHT22;4577;48.704;9.000;2022-12-18T15:47:52;-2.00;71.00
9083;DHT22;4577;48.704;9.000;2022-12-18T15:50:18;-2.20;70.90
9083;DHT22;4577;48.704;9.000;2022-12-18T15:52:45;-2.10;71.80
9083;DHT22;4577;48.704;9.000;2022-12-18T15:55:17;-1.90;71.70
9083;DHT22;4577;48.704;9.000;2022-12-18T15:58:02;-1.90;71.90
9083;DHT22;4577;48.704;9.000;2022-12-18T16:00:28;-1.80;71.70
9083;DHT22;4577;48.704;9.000;2022-12-18T16:05:20;-1.90;71.60
9083;DHT22;4577;48.704;9.000;2022-12-18T16:12:39;-2.00;71.70
9083;DHT22;4577;48.704;9.000;2022-12-18T16:15:06;-2.00;71.90
9083;DHT22;4577;48.704;9.000;2022-12-18T16:19:58;-2.00;72.00
9083;DHT22;4577;48.704;9.000;2022-12-18T16:22:27;-2.10;71.10
9083;DHT22;4577;48.704;9.000;2022-12-18T16:24:55;-2.00;71.50
9083;DHT22;4577;48.704;9.000;2022-12-18T16:27:22;-2.00;71.60
9083;DHT22;4577;48.704;9.000;2022-12-18T16:32:19;-1.90;72.00
9083;DHT22;4577;48.704;9.000;2022-12-18T16:34:45;-1.80;71.90
9083;DHT22;4577;48.704;9.000;2022-12-18T16:37:13;-1.70;72.10
9083;DHT22;4577;48.704;9.000;2022-12-18T16:39:40;-2.10;71.20
9083;DHT22;4577;48.704;9.000;2022-12-18T16:42:14;-2.00;71.30
9083;DHT22;4577;48.704;9.000;2022-12-18T16:47:09;-2.00;71.50
9083;DHT22;4577;48.704;9.000;2022-12-18T16:49:35;-2.00;71.50
9083;DHT22;4577;48.704;9.000;2022-12-18T16:52:09;-1.90;71.20
9083;DHT22;4577;48.704;9.000;2022-12-18T16:54:35;-2.10;71.30
9083;DHT22;4577;48.704;9.000;2022-12-18T17:01:54;-1.50;71.40
9083;DHT22;4577;48.704;9.000;2022-12-18T17:04:22;-1.90;70.90
9083;DHT22;4577;48.704;9.000;2022-12-18T17:09:18;-1.80;70.80
9083;DHT22;4577;48.704;9.000;2022-12-18T17:11:53;-1.90;70.60
9083;DHT22;4577;48.704;9.000;2022-12-18T17:14:22;-2.00;70.90
9083;DHT22;4577;48.704;9.000;2022-12-18T17:21:46;-1.90;69.60
9083;DHT22;4577;48.704;9.000;2022-12-18T17:24:13;-1.90;70.30
9083;DHT22;4577;48.704;9.000;2022-12-18T17:26:39;-2.10;69.80
9083;DHT22;4577;48.704;9.000;2022-12-18T17:38:57;-1.80;69.90
9083;DHT22;4577;48.704;9.000;2022-12-18T17:43:56;-1.80;70.10
9083;DHT22;4577;48.704;9.000;2022-12-18T17:51:16;-1.70;70.20
9083;DHT22;4577;48.704;9.000;2022-12-18T17:56:12;-1.70;70.10
9083;DHT22;4577;48.704;9.000;2022-12-18T17:58:37;-1.60;70.00
9083;DHT22;4577;48.704;9.000;2022-12-18T18:01:04;-1.60;69.70
9083;DHT22;4577;48.704;9.000;2022-12-18T18:08:24;-1.50;70.60
9083;DHT22;4577;48.704;9.000;2022-12-18T18:10:51;-1.70;70.20
9083;DHT22;4577;48.704;9.000;2022-12-18T18:13:20;-1.60;69.90
9083;DHT22;4577;48.704;9.000;2022-12-18T18:18:31;-1.60;70.30
9083;DHT22;4577;48.704;9.000;2022-12-18T18:20:57;-1.60;70.70
9083;DHT22;4577;48.704;9.000;2022-12-18T18:23:26;-1.60;70.50
9083;DHT22;4577;48.704;9.000;2022-12-18T18:26:00;-1.60;70.80
9083;DHT22;4577;48.704;9.000;2022-12-18T18:28:26;-1.60;70.70
9083;DHT22;4577;48.704;9.000;2022-12-18T18:33:18;-1.50;70.70
9083;DHT22;4577;48.704;9.000;2022-12-18T18:47:55;-1.80;71.20
9083;DHT22;4577;48.704;9.000;2022-12-18T18:52:47;-1.50;71.00
9083;DHT22;4577;48.704;9.000;2022-12-18T18:55:13;-1.50;71.30
9083;DHT22;4577;48.704;9.000;2022-12-18T18:57:38;-1.50;71.50
9083;DHT22;4577;48.704;9.000;2022-12-18T19:00:05;-1.60;71.20
9083;DHT22;4577;48.704;9.000;2022-12-18T19:02:31;-1.60;71.60
9083;DHT22;4577;48.704;9.000;2022-12-18T19:12:19;-1.40;72.30
9083;DHT22;4577;48.704;9.000;2022-12-18T19:15:04;-1.50;72.20
9083;DHT22;4577;48.704;9.000;2022-12-18T19:19:58;-1.50;72.40
9083;DHT22;4577;48.704;9.000;2022-12-18T19:22:24;-1.40;72.80
9083;DHT22;4577;48.704;9.000;2022-12-18T19:24:49;-1.50;72.40
9083;DHT22;4577;48.704;9.000;2022-12-18T19:29:41;-1.50;72.70
9083;DHT22;4577;48.704;9.000;2022-12-18T19:32:10;-1.40;73.00
9083;DHT22;4577;48.704;9.000;2022-12-18T19:34:36;-1.50;73.00
9083;DHT22;4577;48.704;9.000;2022-12-18T19:39:29;-1.40;74.00
9083;DHT22;4577;48.704;9.000;2022-12-18T19:41:54;-1.30;74.10
9083;DHT22;4577;48.704;9.000;2022-12-18T19:44:20;-1.40;73.40
9083;DHT22;4577;48.704;9.000;2022-12-18T19:46:49;-0.50;74.80
9083;DHT22;4577;48.704;9.000;2022-12-18T19:49:16;-1.50;73.70
9083;DHT22;4577;48.704;9.000;2022-12-18T19:51:42;-1.30;74.20
9083;DHT22;4577;48.704;9.000;2022-12-18T19:54:08;-1.30;74.00
9083;DHT22;4577;48.704;9.000;2022-12-18T19:56:35;-1.50;73.70
9083;DHT22;4577;48.704;9.000;2022-12-18T19:59:03;-1.40;74.10
9083;DHT22;4577;48.704;9.000;2022-12-18T20:01:30;-1.30;74.00
9083;DHT22;4577;48.704;9.000;2022-12-18T20:06:33;-1.30;74.10
9083;DHT22;4577;48.704;9.000;2022-12-18T20:09:04;-1.20;74.10
9083;DHT22;4577;48.704;9.000;2022-12-18T20:11:32;-1.10;74.40
9083;DHT22;4577;48.704;9.000;2022-12-18T20:14:02;-1.20;73.90
9083;DHT22;4577;48.704;9.000;2022-12-18T20:16:28;-0.20;74.80
9083;DHT22;4577;48.704;9.000;2022-12-18T20:18:54;-1.30;73.90
9083;DHT22;4577;48.704;9.000;2022-12-18T20:21:20;-1.30;74.40
9083;DHT22;4577;48.704;9.000;2022-12-18T20:23:46;-1.10;74.20
9083;DHT22;4577;48.704;9.000;2022-12-18T20:28:38;-1.00;74.30
9083;DHT22;4577;48.704;9.000;2022-12-18T20:31:05;-0.70;74.60
9083;DHT22;4577;48.704;9.000;2022-12-18T20:33:34;-1.80;73.50
9083;DHT22;4577;48.704;9.000;2022-12-18T20:36:05;-1.10;74.40
9083;DHT22;4577;48.704;9.000;2022-12-18T20:38:32;-0.30;75.10
9083;DHT22;4577;48.704;9.000;2022-12-18T20:40:58;-1.20;74.30
9083;DHT22;4577;48.704;9.000;2022-12-18T20:43:28;-1.10;74.60
9083;DHT22;4577;48.704;9.000;2022-12-18T20:46:05;-1.10;74.10
9083;DHT22;4577;48.704;9.000;2022-12-18T20:48:31;-0.90;74.20
9083;DHT22;4577;48.704;9.000;2022-12-18T20:51:09;-1.00;74.30
9083;DHT22;4577;48.704;9.000;2022-12-18T20:53:36;-1.00;74.10
9083;DHT22;4577;48.704;9.000;2022-12-18T20:56:10;-1.00;73.60
9083;DHT22;4577;48.704;9.000;2022-12-18T20:58:36;-0.90;74.20
9083;DHT22;4577;48.704;9.000;2022-12-18T21:01:12;-0.80;74.20
9083;DHT22;4577;48.704;9.000;2022-12-18T21:03:41;-0.80;74.40
9083;DHT22;4577;48.704;9.000;2022-12-18T21:06:08;-0.90;73.70
9083;DHT22;4577;48.704;9.000;2022-12-18T21:11:15;-0.90;74.10
9083;DHT22;4577;48.704;9.000;2022-12-18T21:16:26;-1.20;74.40
9083;DHT22;4577;48.704;9.000;2022-12-18T21:18:51;-0.90;74.70
9083;DHT22;4577;48.704;9.000;2022-12-18T21:23:44;-0.90;74.70
9083;DHT22;4577;48.704;9.000;2022-12-18T21:26:21;-0.90;74.20
9083;DHT22;4577;48.704;9.000;2022-12-18T21:28:55;-1.00;74.60
9083;DHT22;4577;48.704;9.000;2022-12-18T21:31:24;-0.80;74.60
9083;DHT22;4577;48.704;9.000;2022-12-18T21:33:51;-1.00;74.00
9083;DHT22;4577;48.704;9.000;2022-12-18T21:36:17;-1.00;74.50
9083;DHT22;4577;48.704;9.000;2022-12-18T21:38:43;-0.70;74.80
9083;DHT22;4577;48.704;9.000;2022-12-18T21:41:10;-0.80;74.20
9083;DHT22;4577;48.704;9.000;2022-12-18T21:43:56;-0.70;74.90
9083;DHT22;4577;48.704;9.000;2022-12-18T21:46:35;-0.80;74.70
9083;DHT22;4577;48.704;9.000;2022-12-18T21:49:02;-0.90;74.70
9083;DHT22;4577;48.704;9.000;2022-12-18T21:56:21;0.20;76.20
9083;DHT22;4577;48.704;9.000;2022-12-18T21:58:48;-0.80;74.70
9083;DHT22;4577;48.704;9.000;2022-12-18T22:01:14;-0.80;74.60
9083;DHT22;4577;48.704;9.000;2022-12-18T22:06:06;-0.80;74.70
9083;DHT22;4577;48.704;9.000;2022-12-18T22:10:58;-0.70;74.60
9083;DHT22;4577;48.704;9.000;2022-12-18T22:30:47;0.00;76.00
9083;DHT22;4577;48.704;9.000;2022-12-18T22:33:13;-0.50;75.40
9083;DHT22;4577;48.704;9.000;2022-12-18T22:38:04;-0.50;74.90
9083;DHT22;4577;48.704;9.000;2022-12-18T22:45:24;-0.10;75.40
9083;DHT22;4577;48.704;9.000;2022-12-18T22:52:42;-0.20;75.10
9083;DHT22;4577;48.704;9.000;2022-12-18T22:55:08;-0.10;75.30
9083;DHT22;4577;48.704;9.000;2022-12-18T22:57:34;-0.60;74.30
9083;DHT22;4577;48.704;9.000;2022-12-18T23:00:00;-0.30;74.70
9083;DHT22;4577;48.704;9.000;2022-12-18T23:02:25;-0.30;75.00
9083;DHT22;4577;48.704;9.000;2022-12-18T23:12:14;-0.10;74.90
9083;DHT22;4577;48.704;9.000;2022-12-18T23:14:40;0.00;74.50
9083;DHT22;4577;48.704;9.000;2022-12-18T23:17:06;0.00;74.80
9083;DHT22;4577;48.704;9.000;2022-12-18T23:19:35;0.00;74.60
9083;DHT22;4577;48.704;9.000;2022-12-18T23:26:53;0.00;75.00
9083;DHT22;4577;48.704;9.000;2022-12-18T23:29:22;0.00;74.40
9083;DHT22;4577;48.704;9.000;2022-12-18T23:34:14;0.20;75.20
9083;DHT22;4577;48.704;9.000;2022-12-18T23:36:40;0.00;74.80
9083;DHT22;4577;48.704;9.000;2022-12-18T23:39:06;0.10;75.00
9083;DHT22;4577;48.704;9.000;2022-12-18T23:41:32;0.20;75.00
9083;DHT22;4577;48.704;9.000;2022-12-18T23:43:59;0.00;74.70
9083;DHT22;4577;48.704;9.000;2022-12-18T23:46:27;0.10;74.90
9083;DHT22;4577;48.704;9.000;2022-12-18T23:48:53;0.10;74.80
9083;DHT22;4577;48.704;9.000;2022-12-18T23:51:21;0.10;74.90
9083;DHT22;4577;48.704;9.000;2022-12-18T23:53:54;0.00;75.10
9083;DHT22;4577;48.704;9.000;2022-12-18T23:56:21;0.20;74.70
